Briefing drone pour Aurec-sur-loire

Rechercher une autre localisation

Conditions de vol :


Nous sommes le : Dimanche 16 mai 2021
Il est 23:28 UTC (01:28 LT)

Lever de soleil : 03:45 UTC (05:45 LT)
Coucher de soleil : 19:33 UTC (21:33 LT)

Météo

L'essentiel des conditions de vol

VIGILANCE MÉTÉO FRANCE - Haute-Loire (43)
Pas de vigilances particulieres
CARTE TEMSI
CARTES DES FRONTS
METAR de LFMH
LFMH 152300Z AUTO 05002KT 9999 BKN045 OVC054 11/10 Q1010

Date d'émission: 15/05/2021
Heure d'émission: 23:00 UTC
Vent: 050° pour 2 KT (4 km/h)
Visibilité horizontale: > 10 km
Plafond :
- Nuages morcelés à 4500ft (1372m)
- Couvert à 5400ft (1646m)
Température: 11 °C
Point de rosée: 10 °C
Humidité: 94%
Pression (QNH): 1010 hPa
TAF de LFMH
LFMH 151904Z 1519/1612 CNL

Conditions prévues :

Heure d'émission : Bulletin éffectué le 15 à 19:00 UTC
Prévision : Valide du 15 a 19:00 UTC au 16 a 12:00 UTC
Nuages : à 0ft (0 m)
WEBCAM POUR AUREC-SUR-LOIRE

Réglementation

Voler en sécurité

CARTES AERONAUTIQUE 1/500.000
CARTES VAC (LFMH)
SUP AIP




Chargement des AIP...
NOTAM (AUREC-SUR-LOIRE + Terrain à proximité / FIR )




Chargement des NOTAMS...
CONTACT PREFECTURE 43


Avertissement : Les données mises à disposition sont indicatives. Oxygène Drone ne pourra être tenu responsable de dégâts causés aux biens et aux personnes.